Time;durP1;ratioP1;P1;durP2;ratioP2;P2;SDS_P1;SDS_P2;PMS_P1;PMS_P2;Temp;Humidity;BMP_temperature;BMP_pressure;BME280_temperature;BME280_humidity;BME280_pressure;Samples;Min_cycle;Max_cycle;Signal;HPM_P1;HPM_P2
2022/07/24 00:01:28;;;;;;;13.40;12.30;;;28.10;51.80;;;;;;5030842;28;20515;-45
2022/07/24 00:03:54;;;;;;;13.57;12.37;;;28.00;51.80;;;;;;5030068;28;20225;-46
2022/07/24 00:06:19;;;;;;;15.77;14.00;;;27.90;52.10;;;;;;5030266;28;20667;-46
2022/07/24 00:08:45;;;;;;;17.13;15.17;;;27.70;52.70;;;;;;5030293;28;20212;-45
2022/07/24 00:11:11;;;;;;;14.60;13.40;;;27.70;52.70;;;;;;5029123;28;20197;-46
2022/07/24 00:13:37;;;;;;;14.03;12.93;;;27.40;53.60;;;;;;5030359;28;20637;-45
2022/07/24 00:16:03;;;;;;;14.23;13.13;;;27.30;53.60;;;;;;5029896;28;20198;-44
2022/07/24 00:18:29;;;;;;;14.30;13.10;;;27.10;54.40;;;;;;5029930;28;20479;-49
2022/07/24 00:20:55;;;;;;;13.50;12.30;;;27.10;54.40;;;;;;5030606;28;20522;-45
2022/07/24 00:23:22;;;;;;;14.40;12.93;;;27.00;54.50;;;;;;5030158;28;20618;-45
2022/07/24 00:25:48;;;;;;;13.93;12.73;;;27.00;54.70;;;;;;5029876;28;20432;-45
2022/07/24 00:28:14;;;;;;;13.90;12.80;;;27.00;54.70;;;;;;5030093;28;20970;-44
2022/07/24 00:30:40;;;;;;;14.50;13.17;;;27.10;54.40;;;;;;5030500;28;20877;-45
2022/07/24 00:33:06;;;;;;;12.93;11.93;;;27.20;54.00;;;;;;5029960;28;20447;-45
2022/07/24 00:35:32;;;;;;;14.53;13.27;;;27.20;54.00;;;;;;5029814;28;20197;-45
2022/07/24 00:37:58;;;;;;;15.53;13.93;;;27.10;54.80;;;;;;5028097;28;20252;-45
2022/07/24 00:40:24;;;;;;;13.23;12.20;;;27.10;54.10;;;;;;5030382;28;20420;-45
2022/07/24 00:42:50;;;;;;;13.87;12.70;;;27.10;54.30;;;;;;5029852;28;20669;-44
2022/07/24 00:45:16;;;;;;;14.27;13.07;;;27.20;54.10;;;;;;5022446;28;20437;-44
2022/07/24 00:47:42;;;;;;;13.20;12.10;;;27.30;53.90;;;;;;5029473;28;20493;-45
2022/07/24 00:50:08;;;;;;;15.70;14.20;;;27.30;53.70;;;;;;5030425;28;20209;-45
2022/07/24 00:52:34;;;;;;;14.00;12.80;;;27.30;53.60;;;;;;5029863;28;20208;-46
2022/07/24 00:55:00;;;;;;;14.97;13.53;;;27.10;54.00;;;;;;5029708;28;20424;-45
2022/07/24 00:57:26;;;;;;;13.67;12.40;;;27.10;54.20;;;;;;5033793;28;20229;-44
2022/07/24 00:59:51;;;;;;;14.67;13.30;;;27.10;54.20;;;;;;5033741;28;20946;-44
2022/07/24 01:02:17;;;;;;;14.53;13.17;;;26.90;54.70;;;;;;5034052;28;20193;-45
2022/07/24 01:04:43;;;;;;;14.53;13.03;;;26.90;54.80;;;;;;5032207;28;20188;-45
2022/07/24 01:07:08;;;;;;;14.50;13.13;;;26.90;54.80;;;;;;5033873;28;20208;-44
2022/07/24 01:09:34;;;;;;;15.00;13.70;;;26.80;55.10;;;;;;5033431;28;20192;-45
2022/07/24 01:12:01;;;;;;;14.57;13.37;;;26.80;55.10;;;;;;5034135;28;20232;-45
2022/07/24 01:14:27;;;;;;;14.30;13.10;;;26.80;55.00;;;;;;5033478;28;20423;-45
2022/07/24 01:16:53;;;;;;;14.40;13.20;;;26.80;55.00;;;;;;5033580;28;20961;-44
2022/07/24 01:19:18;;;;;;;13.13;12.03;;;26.90;55.00;;;;;;5033339;28;20748;-44
2022/07/24 01:21:48;;;;;;;13.57;12.53;;;26.80;55.00;;;;;;5033978;28;20212;-46
2022/07/24 01:24:14;;;;;;;14.13;12.93;;;26.70;55.10;;;;;;5033340;28;20215;-47
2022/07/24 01:26:40;;;;;;;14.13;13.03;;;26.70;55.10;;;;;;5033634;28;20467;-45
2022/07/24 01:29:05;;;;;;;14.77;13.47;;;26.70;55.20;;;;;;5032965;28;20205;-45
2022/07/24 01:31:31;;;;;;;14.30;13.17;;;26.70;55.20;;;;;;5032303;28;20203;-45
2022/07/24 01:33:57;;;;;;;13.80;12.57;;;26.60;55.50;;;;;;5033182;28;20263;-46
2022/07/24 01:36:22;;;;;;;13.83;12.63;;;26.50;55.80;;;;;;5033376;28;20291;-46
2022/07/24 01:38:48;;;;;;;13.80;12.40;;;26.40;56.10;;;;;;5033111;28;20266;-44
2022/07/24 01:41:14;;;;;;;14.33;12.93;;;26.40;55.90;;;;;;5033476;28;20203;-44
2022/07/24 01:43:39;;;;;;;14.80;13.60;;;26.50;55.80;;;;;;5033038;28;20699;-46
2022/07/24 01:46:05;;;;;;;14.03;12.83;;;26.50;55.80;;;;;;5026191;28;20197;-45
2022/07/24 01:48:31;;;;;;;13.77;12.63;;;26.50;55.80;;;;;;5032886;28;20903;-48
2022/07/24 01:50:56;;;;;;;14.80;13.00;;;26.40;55.90;;;;;;5033500;28;20202;-44
2022/07/24 01:53:22;;;;;;;15.90;14.60;;;26.10;56.40;;;;;;5032749;28;20197;-45
2022/07/24 01:55:52;;;;;;;15.63;14.13;;;25.90;57.20;;;;;;5032809;28;20254;-44
2022/07/24 01:58:18;;;;;;;18.13;16.20;;;25.80;57.60;;;;;;5031034;28;20221;-45
2022/07/24 02:00:46;;;;;;;16.20;14.70;;;25.70;57.90;;;;;;5033064;28;20442;-45
2022/07/24 02:03:12;;;;;;;15.77;14.57;;;25.60;58.40;;;;;;5032501;28;20612;-48
2022/07/24 02:05:37;;;;;;;14.90;13.63;;;25.40;58.70;;;;;;5032622;28;20501;-45
2022/07/24 02:08:03;;;;;;;14.30;13.10;;;25.40;58.60;;;;;;5031726;28;20211;-48
2022/07/24 02:10:29;;;;;;;15.97;14.47;;;25.30;59.00;;;;;;5033237;28;20193;-46
2022/07/24 02:12:56;;;;;;;15.17;13.87;;;25.20;59.20;;;;;;5032524;28;20196;-45
2022/07/24 02:15:22;;;;;;;14.17;12.97;;;25.20;59.30;;;;;;5032724;28;20440;-48
2022/07/24 02:17:49;;;;;;;16.20;14.80;;;25.10;59.80;;;;;;5032268;28;20521;-45
2022/07/24 02:20:15;;;;;;;14.43;13.13;;;25.10;59.70;;;;;;5032796;28;20216;-45
2022/07/24 02:22:41;;;;;;;13.83;12.63;;;25.30;59.30;;;;;;5032311;28;20452;-45
2022/07/24 02:25:07;;;;;;;15.40;14.00;;;25.10;59.70;;;;;;5031393;28;20904;-44
2022/07/24 02:27:33;;;;;;;16.23;14.57;;;24.80;60.60;;;;;;5032345;28;20190;-48
2022/07/24 02:29:58;;;;;;;15.33;13.73;;;24.70;61.50;;;;;;5032096;28;20439;-46
2022/07/24 02:32:24;;;;;;;16.37;14.67;;;24.70;61.30;;;;;;5032366;28;20264;-45
2022/07/24 02:34:50;;;;;;;15.90;14.33;;;24.80;60.80;;;;;;5032170;28;20196;-49
2022/07/24 02:37:16;;;;;;;16.00;14.60;;;24.70;61.30;;;;;;5031875;28;20248;-46
2022/07/24 02:39:42;;;;;;;16.37;14.93;;;24.80;61.30;;;;;;5032042;28;20442;-46
2022/07/24 02:42:08;;;;;;;14.87;13.30;;;24.80;61.20;;;;;;5032298;28;21202;-44
2022/07/24 02:44:33;;;;;;;15.13;13.83;;;24.90;60.60;;;;;;5028344;28;20205;-46
2022/07/24 02:46:59;;;;;;;14.90;13.60;;;24.70;60.80;;;;;;5028051;28;20204;-48
2022/07/24 02:49:25;;;;;;;16.63;15.03;;;24.60;61.50;;;;;;5031944;28;20200;-44
2022/07/24 02:51:50;;;;;;;15.53;13.93;;;24.40;62.50;;;;;;5030526;28;20667;-48
2022/07/24 02:54:16;;;;;;;15.30;13.83;;;24.40;62.50;;;;;;5031554;28;20692;-44
2022/07/24 02:56:43;;;;;;;15.30;13.93;;;24.50;61.80;;;;;;5031922;28;20197;-46
2022/07/24 02:59:08;;;;;;;13.97;12.67;;;24.70;61.60;;;;;;5031835;28;20645;-44
2022/07/24 03:01:34;;;;;;;15.30;14.00;;;24.80;60.70;;;;;;5032045;28;20456;-48
2022/07/24 03:04:00;;;;;;;15.73;14.13;;;24.80;60.30;;;;;;5031286;28;20217;-45
2022/07/24 03:06:26;;;;;;;14.57;13.27;;;24.90;60.20;;;;;;5031521;28;20719;-47
2022/07/24 03:08:51;;;;;;;16.20;14.30;;;24.80;60.40;;;;;;5031405;28;20197;-45
2022/07/24 03:11:17;;;;;;;14.57;13.13;;;24.80;60.40;;;;;;5031767;28;20193;-44
2022/07/24 03:13:43;;;;;;;14.40;13.20;;;24.80;60.60;;;;;;5031219;28;20209;-45
2022/07/24 03:16:09;;;;;;;15.10;13.80;;;24.60;60.90;;;;;;5031359;28;20199;-45
2022/07/24 03:18:35;;;;;;;14.37;13.17;;;24.50;61.70;;;;;;5028799;28;20225;-46
2022/07/24 03:21:00;;;;;;;14.57;13.20;;;24.20;62.90;;;;;;5031119;28;20432;-46
2022/07/24 03:23:26;;;;;;;16.00;14.60;;;24.10;63.30;;;;;;5031282;28;20196;-48
2022/07/24 03:25:54;;;;;;;15.80;14.30;;;24.00;64.00;;;;;;5030975;28;20194;-45
2022/07/24 03:28:19;;;;;;;14.20;13.00;;;23.90;64.20;;;;;;5031121;28;20197;-45
2022/07/24 03:30:45;;;;;;;15.83;14.40;;;23.80;64.80;;;;;;5031406;28;20973;-44
2022/07/24 03:33:11;;;;;;;14.80;13.60;;;24.00;63.90;;;;;;5031259;28;20189;-44
2022/07/24 03:35:36;;;;;;;14.47;13.27;;;24.30;62.60;;;;;;5031195;28;20194;-45
2022/07/24 03:38:02;;;;;;;15.20;14.00;;;24.30;62.00;;;;;;5030129;28;20248;-47
2022/07/24 03:40:28;;;;;;;15.33;13.97;;;24.40;62.00;;;;;;5031371;28;20201;-45
2022/07/24 03:42:54;;;;;;;15.37;14.00;;;24.50;61.80;;;;;;5031005;28;20850;-45
2022/07/24 03:45:20;;;;;;;15.10;13.70;;;24.60;61.20;;;;;;5026912;28;20185;-45
2022/07/24 03:47:45;;;;;;;14.33;13.23;;;24.70;60.60;;;;;;5030702;28;20272;-48
2022/07/24 03:50:11;;;;;;;14.57;13.17;;;24.70;60.30;;;;;;5031200;28;20199;-44
2022/07/24 03:52:36;;;;;;;15.30;13.90;;;24.70;60.50;;;;;;5031134;28;20192;-44
2022/07/24 03:55:03;;;;;;;14.27;12.80;;;24.80;60.30;;;;;;5030822;28;20271;-48
2022/07/24 03:57:29;;;;;;;15.30;14.10;;;24.90;59.80;;;;;;5030435;28;20633;-48
2022/07/24 03:59:54;;;;;;;15.00;13.70;;;25.00;59.60;;;;;;5030427;28;20436;-44
2022/07/24 04:02:20;;;;;;;21.53;13.30;;;24.90;59.60;;;;;;5030933;28;20181;-45
2022/07/24 04:04:45;;;;;;;14.03;12.90;;;24.90;59.70;;;;;;5030187;28;20558;-44
2022/07/24 04:07:11;;;;;;;15.93;14.63;;;24.80;60.00;;;;;;5030608;28;20200;-46
2022/07/24 04:09:37;;;;;;;15.67;14.27;;;24.70;60.40;;;;;;5030643;28;20244;-46
2022/07/24 04:12:03;;;;;;;13.53;12.43;;;24.50;61.10;;;;;;5029148;28;20645;-46
2022/07/24 04:14:28;;;;;;;15.00;13.70;;;24.50;61.30;;;;;;5030132;28;20197;-44
2022/07/24 04:16:54;;;;;;;15.67;13.00;;;24.50;61.20;;;;;;5030621;28;20219;-44
2022/07/24 04:19:19;;;;;;;14.73;13.47;;;24.50;60.90;;;;;;5030012;28;20264;-45
2022/07/24 04:21:45;;;;;;;14.27;12.97;;;24.50;60.90;;;;;;5030808;28;20616;-44
2022/07/24 04:24:11;;;;;;;14.40;13.20;;;24.50;61.00;;;;;;5029866;28;20563;-46
2022/07/24 04:26:37;;;;;;;14.50;13.40;;;24.60;60.70;;;;;;5030401;28;20212;-48
2022/07/24 04:29:03;;;;;;;16.30;14.80;;;24.60;60.90;;;;;;5030012;28;20475;-44
2022/07/24 04:31:29;;;;;;;14.60;13.40;;;24.40;61.50;;;;;;5030609;28;20246;-45
2022/07/24 04:33:54;;;;;;;14.80;13.50;;;24.30;62.10;;;;;;5029807;28;20436;-45
2022/07/24 04:36:20;;;;;;;14.90;13.63;;;24.20;62.50;;;;;;5030150;28;20691;-45
2022/07/24 04:38:45;;;;;;;15.73;14.33;;;24.20;62.80;;;;;;5028777;28;20221;-44
2022/07/24 04:41:11;;;;;;;14.00;12.73;;;24.20;62.90;;;;;;5030161;28;20627;-44
2022/07/24 04:43:37;;;;;;;14.90;13.73;;;24.20;62.80;;;;;;5029937;28;20193;-44
2022/07/24 04:46:03;;;;;;;14.30;13.00;;;24.30;62.30;;;;;;5022649;28;20439;-45
2022/07/24 04:48:29;;;;;;;14.73;13.53;;;24.50;61.70;;;;;;5029862;28;20208;-44
2022/07/24 04:50:54;;;;;;;15.73;14.23;;;24.60;61.20;;;;;;5030616;28;20197;-44
2022/07/24 04:53:20;;;;;;;16.10;14.60;;;24.40;62.00;;;;;;5029801;28;20197;-44
2022/07/24 04:55:46;;;;;;;15.20;13.83;;;24.00;63.30;;;;;;5030153;28;20197;-44
2022/07/24 04:58:11;;;;;;;14.47;13.17;;;23.80;64.30;;;;;;5029612;28;20231;-45
2022/07/24 05:00:37;;;;;;;15.60;14.30;;;23.70;65.10;;;;;;5030686;28;20196;-44
2022/07/24 05:03:03;;;;;;;16.30;14.90;;;23.60;65.00;;;;;;5029454;28;20197;-44
2022/07/24 05:05:28;;;;;;;15.07;13.77;;;23.60;65.30;;;;;;5029818;28;20645;-44
2022/07/24 05:07:54;;;;;;;15.30;14.00;;;23.60;65.60;;;;;;5028425;28;20186;-44
2022/07/24 05:10:19;;;;;;;15.27;13.87;;;23.60;65.80;;;;;;5030123;28;20239;-44
2022/07/24 05:12:45;;;;;;;16.10;14.60;;;23.40;66.70;;;;;;5029672;28;20199;-44
2022/07/24 05:15:11;;;;;;;15.47;14.20;;;23.50;66.20;;;;;;5029972;28;20215;-44
2022/07/24 05:17:37;;;;;;;15.47;14.07;;;23.40;66.70;;;;;;5029805;28;20225;-45
2022/07/24 05:20:05;;;;;;;15.90;14.47;;;23.70;66.00;;;;;;5029719;28;20190;-45
2022/07/24 05:22:31;;;;;;;14.73;13.53;;;23.90;64.90;;;;;;5029993;28;20432;-45
2022/07/24 05:24:56;;;;;;;16.03;14.63;;;23.90;64.70;;;;;;5029418;28;20494;-44
2022/07/24 05:27:22;;;;;;;16.20;14.87;;;24.00;64.50;;;;;;5030307;28;20204;-44
2022/07/24 05:29:48;;;;;;;16.70;15.20;;;23.80;65.50;;;;;;5029563;28;20288;-44
2022/07/24 05:32:14;;;;;;;15.17;13.67;;;23.80;65.70;;;;;;5029919;28;20432;-44
2022/07/24 05:34:40;;;;;;;15.07;13.67;;;24.00;65.20;;;;;;5027814;28;20193;-44
2022/07/24 05:37:06;;;;;;;15.23;13.93;;;24.10;64.50;;;;;;5029360;28;20829;-47
2022/07/24 05:39:31;;;;;;;16.00;14.60;;;24.30;64.30;;;;;;5029341;28;20209;-44
2022/07/24 05:41:57;;;;;;;14.97;13.40;;;24.30;63.80;;;;;;5029817;28;20718;-44
2022/07/24 05:44:22;;;;;;;14.30;12.87;;;24.50;63.40;;;;;;5031078;28;20268;-44
2022/07/24 05:46:48;;;;;;;15.70;14.40;;;24.70;62.70;;;;;;5027776;28;20209;-44
2022/07/24 05:49:13;;;;;;;13.37;12.27;;;24.80;61.80;;;;;;5032891;28;20295;-44
2022/07/24 05:51:39;;;;;;;14.40;13.20;;;25.10;61.20;;;;;;5033574;28;20624;-44
2022/07/24 05:54:05;;;;;;;15.97;14.47;;;25.10;60.60;;;;;;5032791;28;20215;-44
2022/07/24 05:56:31;;;;;;;14.53;13.20;;;25.10;61.00;;;;;;5032775;28;20255;-44
2022/07/24 05:58:56;;;;;;;14.20;12.80;;;25.00;61.40;;;;;;5032643;28;20715;-44
2022/07/24 06:01:22;;;;;;;15.10;13.50;;;25.20;61.00;;;;;;5031731;28;20190;-44
2022/07/24 06:03:48;;;;;;;15.20;13.90;;;25.20;60.70;;;;;;5032820;28;20186;-44
2022/07/24 06:06:13;;;;;;;14.97;13.57;;;25.10;60.90;;;;;;5032617;28;20201;-45
2022/07/24 06:08:39;;;;;;;14.37;12.90;;;25.00;61.50;;;;;;5032790;28;20212;-45
2022/07/24 06:11:05;;;;;;;14.73;13.40;;;25.20;60.90;;;;;;5033039;28;20189;-44
2022/07/24 06:13:31;;;;;;;13.87;12.60;;;25.20;60.60;;;;;;5032628;28;21101;-44
2022/07/24 06:15:57;;;;;;;13.03;11.93;;;25.40;60.40;;;;;;5032309;28;20522;-44
2022/07/24 06:18:22;;;;;;;13.10;11.90;;;25.50;59.80;;;;;;5032404;28;20697;-48
2022/07/24 06:20:48;;;;;;;14.50;13.13;;;25.60;59.60;;;;;;5033048;28;20208;-47
2022/07/24 06:23:14;;;;;;;13.40;12.10;;;25.60;59.50;;;;;;5032154;28;20664;-48
2022/07/24 06:25:39;;;;;;;14.30;13.00;;;26.10;58.50;;;;;;5032588;28;20193;-45
2022/07/24 06:28:05;;;;;;;14.03;12.83;;;26.40;57.60;;;;;;5030679;28;20201;-48
2022/07/24 06:30:31;;;;;;;13.23;12.13;;;26.30;57.20;;;;;;5032685;28;20661;-49
2022/07/24 06:32:58;;;;;;;13.57;12.47;;;26.40;57.00;;;;;;5032007;28;20420;-44
2022/07/24 06:35:25;;;;;;;13.60;12.20;;;26.60;56.40;;;;;;5032388;28;20225;-45
2022/07/24 06:37:50;;;;;;;13.13;11.93;;;26.60;56.10;;;;;;5031843;28;20978;-45
2022/07/24 06:40:18;;;;;;;12.93;11.87;;;26.70;55.50;;;;;;5032571;28;20422;-45
2022/07/24 06:42:45;;;;;;;12.83;11.83;;;26.90;55.30;;;;;;5031742;28;20189;-45
2022/07/24 06:45:11;;;;;;;13.90;12.60;;;27.00;54.80;;;;;;5024765;28;20430;-46
2022/07/24 06:47:37;;;;;;;13.23;12.13;;;27.10;54.90;;;;;;5032606;28;20482;-45
2022/07/24 06:50:03;;;;;;;12.90;11.80;;;27.20;54.40;;;;;;5032001;28;20421;-44
2022/07/24 06:52:29;;;;;;;12.17;11.17;;;27.20;54.20;;;;;;5032067;28;20216;-48
2022/07/24 06:54:54;;;;;;;14.00;12.70;;;27.40;53.90;;;;;;5029413;28;20464;-46
2022/07/24 06:57:20;;;;;;;12.70;11.70;;;27.70;53.10;;;;;;5032240;28;20562;-44
2022/07/24 06:59:46;;;;;;;12.13;11.13;;;27.90;52.70;;;;;;5031595;28;20247;-48
2022/07/24 07:02:12;;;;;;;13.37;12.27;;;28.20;52.30;;;;;;5032034;28;20204;-44
2022/07/24 07:04:37;;;;;;;12.70;11.63;;;28.40;51.60;;;;;;5031932;28;20612;-46
2022/07/24 07:07:04;;;;;;;12.23;11.23;;;28.50;50.90;;;;;;5031770;28;20285;-49
2022/07/24 07:09:30;;;;;;;13.70;12.70;;;28.60;50.60;;;;;;5031359;28;20204;-44
2022/07/24 07:11:55;;;;;;;12.77;11.57;;;28.90;50.20;;;;;;5031941;28;21130;-46
2022/07/24 07:14:21;;;;;;;12.83;11.63;;;29.10;50.00;;;;;;5031399;28;20196;-46
2022/07/24 07:16:47;;;;;;;13.20;12.00;;;29.20;49.50;;;;;;5031641;28;20198;-44
2022/07/24 07:19:13;;;;;;;12.87;11.67;;;29.10;49.30;;;;;;5031213;28;20232;-46
2022/07/24 07:21:39;;;;;;;12.93;11.80;;;29.30;48.80;;;;;;5029970;28;20511;-45
2022/07/24 07:24:05;;;;;;;13.40;11.30;;;29.50;48.40;;;;;;5031298;28;20236;-45
2022/07/24 07:26:31;;;;;;;11.90;11.00;;;29.80;48.30;;;;;;5031455;28;20230;-45
2022/07/24 07:28:56;;;;;;;11.30;10.37;;;29.90;47.60;;;;;;5031104;28;20424;-45
2022/07/24 07:31:24;;;;;;;11.93;10.93;;;30.00;47.60;;;;;;5031582;28;20570;-45
2022/07/24 07:33:50;;;;;;;12.77;11.53;;;30.00;47.60;;;;;;5030679;28;20190;-44
2022/07/24 07:36:15;;;;;;;11.93;10.93;;;30.20;47.60;;;;;;5031039;28;20463;-45
2022/07/24 07:38:41;;;;;;;11.40;10.37;;;30.40;47.30;;;;;;5030950;28;20533;-47
2022/07/24 07:41:06;;;;;;;12.37;11.40;;;30.50;46.40;;;;;;5031732;28;20730;-44
2022/07/24 07:43:32;;;;;;;13.40;12.30;;;30.60;46.20;;;;;;5030708;28;20204;-45
2022/07/24 07:45:58;;;;;;;12.10;11.10;;;30.70;45.70;;;;;;5023663;28;20225;-47
2022/07/24 07:48:23;;;;;;;11.10;10.30;;;30.60;46.00;;;;;;5029205;28;20272;-46
2022/07/24 07:50:49;;;;;;;11.03;10.13;;;30.60;44.80;;;;;;5031213;28;20262;-45
2022/07/24 07:53:15;;;;;;;11.30;10.20;;;30.70;44.10;;;;;;5030507;28;20622;-44
2022/07/24 07:55:40;;;;;;;10.93;10.13;;;30.80;43.80;;;;;;5030751;28;20689;-45
2022/07/24 07:58:06;;;;;;;10.10;9.30;;;31.00;43.80;;;;;;5030358;28;20577;-47
2022/07/24 08:00:33;;;;;;;10.37;9.50;;;31.30;43.30;;;;;;5031132;28;20201;-45
2022/07/24 08:02:59;;;;;;;10.73;9.80;;;31.40;43.10;;;;;;5030587;28;20428;-44
2022/07/24 08:05:24;;;;;;;10.17;9.17;;;31.50;43.80;;;;;;5029941;28;20439;-45
2022/07/24 08:07:50;;;;;;;11.03;10.13;;;31.70;43.40;;;;;;5030574;28;20186;-44
2022/07/24 08:10:15;;;;;;;9.00;8.23;;;31.80;43.10;;;;;;5031021;28;20197;-45
2022/07/24 08:12:41;;;;;;;10.70;9.60;;;31.90;43.30;;;;;;5030680;28;20190;-45
2022/07/24 08:15:08;;;;;;;10.00;9.23;;;32.20;42.20;;;;;;5028727;28;20197;-45
2022/07/24 08:17:33;;;;;;;11.47;10.47;;;32.40;41.30;;;;;;5030709;28;20255;-45
2022/07/24 08:20:00;;;;;;;9.90;8.90;;;32.60;40.70;;;;;;5030225;28;20899;-45
2022/07/24 08:22:26;;;;;;;10.40;9.60;;;32.60;40.30;;;;;;5030838;28;20225;-45
2022/07/24 08:24:51;;;;;;;10.37;9.47;;;32.80;40.60;;;;;;5030138;28;20451;-45
2022/07/24 08:27:17;;;;;;;10.07;9.37;;;32.90;39.80;;;;;;5030742;28;20296;-46
2022/07/24 08:29:42;;;;;;;10.47;9.43;;;32.60;40.10;;;;;;5030253;28;20197;-45
2022/07/24 08:32:08;;;;;;;8.70;8.00;;;32.70;39.90;;;;;;5030739;28;20263;-47
2022/07/24 08:34:34;;;;;;;9.40;8.70;;;32.90;40.50;;;;;;5020149;28;20286;-46
2022/07/24 08:37:00;;;;;;;10.17;9.23;;;33.10;39.40;;;;;;5028594;28;20340;-46
2022/07/24 08:39:26;;;;;;;9.83;8.60;;;33.20;38.40;;;;;;5030538;28;20286;-44
2022/07/24 08:41:51;;;;;;;8.73;8.00;;;33.30;37.80;;;;;;5024729;28;20479;-44
2022/07/24 08:44:20;;;;;;;9.50;8.80;;;33.50;37.40;;;;;;5024473;28;20711;-45
2022/07/24 08:46:46;;;;;;;9.60;8.90;;;33.30;38.40;;;;;;5029332;28;20208;-43
2022/07/24 08:49:13;;;;;;;8.90;8.20;;;33.20;37.10;;;;;;5027839;28;20439;-44
2022/07/24 08:51:41;;;;;;;8.90;8.20;;;33.10;36.50;;;;;;5040448;28;20201;-47
2022/07/24 08:54:08;;;;;;;8.17;7.47;;;33.30;35.30;;;;;;5027257;28;20811;-44
2022/07/24 08:56:36;;;;;;;9.07;8.30;;;33.60;36.00;;;;;;5027978;28;20436;-43
2022/07/24 08:59:02;;;;;;;8.00;7.40;;;33.80;36.00;;;;;;5024112;28;20494;-43
2022/07/24 09:01:28;;;;;;;9.43;8.70;;;34.00;35.30;;;;;;5027165;28;20440;-47
2022/07/24 09:03:54;;;;;;;9.77;8.87;;;34.10;35.90;;;;;;5028062;28;20641;-48
2022/07/24 09:06:20;;;;;;;10.00;9.10;;;34.20;35.60;;;;;;5020501;28;20444;-43
2022/07/24 09:09:03;;;;;;;8.80;8.20;;;34.40;36.60;;;;;;5026537;28;20509;-43
2022/07/24 09:11:29;;;;;;;8.43;7.63;;;34.60;34.70;;;;;;5021233;28;20668;-46
2022/07/24 09:16:46;;;;;;;8.50;7.70;;;34.80;33.30;;;;;;5030133;28;20216;-48
2022/07/24 09:19:13;;;;;;;8.87;8.30;;;34.90;33.40;;;;;;5028779;28;20492;-47
2022/07/24 09:21:41;;;;;;;8.63;8.03;;;35.20;32.90;;;;;;5033143;28;20536;-46
2022/07/24 09:24:16;;;;;;;9.40;8.60;;;35.00;33.70;;;;;;5031205;28;21094;-48
2022/07/24 09:26:55;;;;;;;8.63;7.93;;;35.10;33.60;;;;;;5028343;28;20470;-46
2022/07/24 09:29:23;;;;;;;9.10;8.40;;;34.90;33.30;;;;;;5022425;28;20451;-45
2022/07/24 09:32:07;;;;;;;9.07;8.27;;;34.80;33.60;;;;;;5026248;28;20447;-47
2022/07/24 09:34:40;;;;;;;8.50;7.90;;;34.90;33.60;;;;;;5024001;28;20928;-44
2022/07/24 09:37:07;;;;;;;9.27;8.57;;;35.00;33.50;;;;;;5027488;28;20541;-45
2022/07/24 09:39:35;;;;;;;8.43;7.83;;;35.00;33.20;;;;;;5026725;28;20548;-45
2022/07/24 09:42:03;;;;;;;8.47;7.90;;;35.00;33.80;;;;;;5027933;28;20451;-47
2022/07/24 09:44:32;;;;;;;9.10;8.50;;;35.20;33.00;;;;;;5031598;28;20452;-43
2022/07/24 09:47:09;;;;;;;9.13;8.43;;;35.10;32.90;;;;;;5029702;28;21063;-44
2022/07/24 09:49:36;;;;;;;9.17;8.57;;;35.20;32.90;;;;;;5035594;28;20853;-47
2022/07/24 09:52:05;;;;;;;9.27;8.57;;;35.60;33.40;;;;;;5027192;28;20443;-44
2022/07/24 09:54:35;;;;;;;8.50;7.90;;;35.40;32.50;;;;;;5027357;28;20516;-45
2022/07/24 09:57:27;;;;;;;8.20;7.60;;;35.30;33.20;;;;;;5026492;28;20428;-43
2022/07/24 09:59:54;;;;;;;8.70;8.00;;;35.70;33.20;;;;;;5026809;28;20475;-45
2022/07/24 10:02:23;;;;;;;9.13;8.33;;;36.00;32.60;;;;;;5027534;28;20444;-45
2022/07/24 10:04:50;;;;;;;8.70;8.00;;;36.30;32.20;;;;;;5016645;28;21155;-44
2022/07/24 10:07:18;;;;;;;8.53;7.93;;;36.60;32.10;;;;;;5022564;28;20440;-47
2022/07/24 10:09:49;;;;;;;8.47;7.37;;;37.10;31.50;;;;;;5033287;28;20443;-44
2022/07/24 10:12:24;;;;;;;8.60;7.90;;;37.00;30.30;;;;;;5031463;28;20451;-44
2022/07/24 10:14:52;;;;;;;8.03;7.43;;;37.00;30.20;;;;;;5030056;28;20448;-46
2022/07/24 10:17:18;;;;;;;8.93;7.20;;;37.10;29.90;;;;;;5028713;28;20472;-48
2022/07/24 10:19:49;;;;;;;8.27;7.57;;;37.20;29.90;;;;;;5029457;28;20981;-48
2022/07/24 10:22:16;;;;;;;7.93;7.33;;;37.40;29.40;;;;;;5032417;28;20445;-48
2022/07/24 10:25:04;;;;;;;8.40;7.80;;;37.40;30.30;;;;;;5031046;28;20563;-46
2022/07/24 10:27:29;;;;;;;9.03;8.33;;;37.70;29.70;;;;;;5015711;28;20428;-44
2022/07/24 10:29:59;;;;;;;8.73;7.93;;;37.50;29.80;;;;;;5028936;28;20440;-44
2022/07/24 10:32:26;;;;;;;8.23;7.63;;;37.60;29.90;;;;;;5018448;28;20196;-45
2022/07/24 10:35:01;;;;;;;7.90;7.40;;;37.80;30.00;;;;;;5026477;28;20460;-44
2022/07/24 10:37:46;;;;;;;11.03;8.57;;;38.40;29.60;;;;;;5028763;28;20515;-45
2022/07/24 10:40:44;;;;;;;9.03;8.43;;;38.90;28.90;;;;;;5038885;28;20849;-45
2022/07/24 10:43:11;;;;;;;8.60;7.90;;;39.30;28.30;;;;;;5024017;28;20458;-45
2022/07/24 10:45:48;;;;;;;9.43;8.67;;;39.60;27.90;;;;;;5028200;28;20443;-44
2022/07/24 10:48:20;;;;;;;9.13;8.40;;;39.80;27.20;;;;;;5023024;28;20439;-45
2022/07/24 10:51:01;;;;;;;9.80;9.10;;;39.90;26.70;;;;;;5027073;28;20538;-46
2022/07/24 10:53:29;;;;;;;9.20;8.40;;;40.00;26.40;;;;;;5024767;28;20443;-45
2022/07/24 10:56:28;;;;;;;9.50;8.80;;;40.10;26.70;;;;;;5029907;28;20440;-43
2022/07/24 10:59:07;;;;;;;8.97;8.07;;;40.10;27.10;;;;;;5029057;28;20517;-45
2022/07/24 11:01:47;;;;;;;9.03;8.43;;;40.10;26.50;;;;;;5028267;28;20824;-43
2022/07/24 11:04:22;;;;;;;9.10;8.50;;;40.00;26.50;;;;;;5027362;28;20443;-46
2022/07/24 11:06:52;;;;;;;8.50;7.90;;;40.00;26.90;;;;;;5029114;28;20958;-44
2022/07/24 11:09:20;;;;;;;8.87;8.27;;;40.10;26.10;;;;;;5023652;28;20866;-43
2022/07/24 11:11:51;;;;;;;9.63;8.83;;;40.20;26.20;;;;;;5028042;28;20446;-43
2022/07/24 11:14:47;;;;;;;8.30;7.80;;;39.20;26.90;;;;;;5024819;28;20982;-43
2022/07/24 11:17:38;;;;;;;9.80;8.17;;;39.30;27.10;;;;;;5030513;28;20455;-44
2022/07/24 11:20:09;;;;;;;9.73;9.00;;;39.60;27.20;;;;;;5030803;28;20828;-43
2022/07/24 11:22:44;;;;;;;8.47;7.87;;;39.90;26.40;;;;;;5025827;28;20451;-43
2022/07/24 11:25:33;;;;;;;9.07;8.37;;;39.60;26.80;;;;;;5029080;28;20533;-43
2022/07/24 11:28:07;;;;;;;8.80;8.10;;;39.30;27.10;;;;;;5026932;28;20812;-43
2022/07/24 11:30:33;;;;;;;9.00;8.27;;;39.20;27.30;;;;;;5032674;28;20490;-43
2022/07/24 11:32:59;;;;;;;9.10;8.00;;;39.00;27.10;;;;;;5022128;28;20475;-43
2022/07/24 11:35:33;;;;;;;7.63;7.13;;;39.30;26.80;;;;;;5028090;28;20197;-44
2022/07/24 11:38:01;;;;;;;9.03;8.43;;;39.40;26.70;;;;;;5024203;28;20515;-44
2022/07/24 11:40:26;;;;;;;9.90;9.03;;;39.30;26.80;;;;;;5028761;28;20858;-45
2022/07/24 11:42:57;;;;;;;9.10;8.30;;;39.50;27.30;;;;;;5020149;28;20440;-44
2022/07/24 11:45:23;;;;;;;8.47;7.87;;;39.70;27.00;;;;;;5016995;28;20247;-46
2022/07/24 11:47:48;;;;;;;9.10;8.30;;;39.90;26.20;;;;;;5025386;28;20500;-44
2022/07/24 11:50:14;;;;;;;9.70;8.80;;;40.00;25.90;;;;;;5028998;28;20447;-46
2022/07/24 11:52:41;;;;;;;8.37;7.77;;;40.10;25.90;;;;;;5025101;28;20200;-45
2022/07/24 11:55:13;;;;;;;8.90;8.30;;;40.10;26.10;;;;;;5028519;28;20622;-46
2022/07/24 11:57:41;;;;;;;8.80;8.20;;;40.20;25.60;;;;;;5026514;28;20490;-44
2022/07/24 12:00:13;;;;;;;8.57;8.07;;;40.20;25.70;;;;;;5037979;28;20481;-46
2022/07/24 12:02:50;;;;;;;8.40;7.67;;;40.30;25.40;;;;;;5028154;28;21043;-44
2022/07/24 12:05:27;;;;;;;8.70;8.10;;;40.20;24.90;;;;;;5030273;28;20458;-44
2022/07/24 12:07:53;;;;;;;8.33;7.70;;;40.30;25.30;;;;;;5034780;28;20821;-45
2022/07/24 12:10:23;;;;;;;8.90;8.30;;;40.50;25.30;;;;;;5029813;28;20463;-45
2022/07/24 12:12:51;;;;;;;9.20;8.60;;;40.50;25.40;;;;;;5016829;28;20448;-47
2022/07/24 12:15:17;;;;;;;9.00;8.30;;;40.60;26.00;;;;;;5018188;28;20439;-43
2022/07/24 12:18:05;;;;;;;8.67;8.17;;;40.70;24.50;;;;;;5017653;28;20475;-44
2022/07/24 12:20:43;;;;;;;8.77;8.03;;;40.80;24.90;;;;;;5029814;28;20276;-44
2022/07/24 12:23:11;;;;;;;9.03;8.33;;;40.90;25.30;;;;;;5028784;28;20840;-47
2022/07/24 12:25:37;;;;;;;7.70;7.20;;;41.00;25.30;;;;;;5028347;28;20435;-44
2022/07/24 12:28:07;;;;;;;8.70;8.10;;;41.00;25.20;;;;;;5028035;28;20457;-45
2022/07/24 12:30:39;;;;;;;9.20;8.40;;;41.20;24.60;;;;;;5029296;28;21218;-44
2022/07/24 12:33:08;;;;;;;8.60;7.93;;;41.40;24.10;;;;;;5026935;28;20593;-43
2022/07/24 12:35:53;;;;;;;8.70;8.20;;;41.20;24.00;;;;;;5029135;28;20474;-43
2022/07/24 12:38:31;;;;;;;9.17;8.40;;;41.10;24.00;;;;;;5028709;28;20521;-44